Terminal Aerodrome Forecast
Issued by NWS

Home | Current Version | Previous Version | Text Only | Print | Product List | Glossary Off
Versions: 1 2 3 4 5 6 7 8 9 10 11 12 13 14 15 16 17 18 19 20

000
FTUS43 KFGF 230348 AAA
TAFBJI
TAF AMD
KBJI 230348Z 2304/2324 17010KT P6SM BKN050
     FM230900 28008KT P6SM BKN025
     FM231000 29007KT P6SM BKN015
     FM231800 32006KT P6SM VCSH OVC015
     FM232100 35006KT P6SM VCSH OVC025=

USA.gov is the U.S. government's official web portal to all federal, state and local government web resources and services.